Terminal Aerodrome Forecast
Issued by NWS

Home | Current Version | Previous Version | Text Only | Print | Product List | Glossary On
Versions: 1 2 3 4 5 6 7 8 9 10 11 12 13 14
982
FTPA31 PHFO 190531
TAFHMK
TAF
PHMK 190531Z 1906/2006 35005KT P6SM VCSH SCT020 BKN045
     FM192000 34012G20KT P6SM FEW020 SCT045
     FM200500 35008KT P6SM FEW020 BKN045=

USA.gov is the U.S. government's official web portal to all federal, state and local government web resources and services.